Latest Weather Observations for Winton

IDQ60801

Issued at 8:02 pm EST Monday 23 January 2017 (issued every 30 minutes, with the page automatically refreshed every 10 minutes)

About weather observations | Map of weather stations | Latest weather observations for QLD | Other Formats
Station Details ID: 037039 Name: WINTON AIRPORT Lat: -22.36 Lon: 143.08 Height: 192.2 m
Data from the previous 72 hours. | See also: Recent months at Winton
Date/Time
EST
Temp
°C
App
Temp
°C
Dew
Point
°C
Rel
Hum
%
Delta-T
°C
Wind Press
QNH
hPa
Press
MSL
hPa
Rain since
9am
mm
Dir  Spd
km/h
Gust
km/h
Spd
kts
Gust
kts
23/08:00pm 32.9 35.4 21.1 50 8.0 N 9 13 5 7 1009.0 1007.5 0.0
23/07:30pm 35.0 35.0 17.2 34 11.5 NNE 13 17 7 9 1008.4 1006.9 0.0
23/07:00pm 36.2 37.2 18.7 35 11.6 N 11 17 6 9 1008.0 1006.5 0.0
23/06:30pm 37.0 38.2 19.0 34 12.0 NNE 11 19 6 10 1007.6 1006.1 0.0
23/06:00pm 37.3 38.8 19.7 35 11.9 N 11 19 6 10 1006.9 1005.4 0.0
23/05:30pm 37.4 38.9 19.8 35 11.9 NW 11 15 6 8 1006.7 1005.2 0.0
23/05:00pm 37.3 37.7 21.0 38 11.2 N 20 28 11 15 1006.5 1005.0 0.0
23/04:30pm 38.5 39.1 20.3 34 12.4 NNE 17 24 9 13 1006.7 1005.2 0.0
23/04:00pm 37.1 37.8 20.4 37 11.3 NNE 17 20 9 11 1007.2 1005.7 0.0
23/03:30pm 36.7 39.3 20.5 39 11.0 N 7 13 4 7 1007.7 1006.2 0.0
23/03:00pm 37.5 39.2 21.6 39 11.0 N 15 20 8 11 1008.2 1006.7 0.0
23/02:30pm 37.7 40.3 22.6 42 10.5 N 13 24 7 13 1008.6 1007.1 0.0
23/02:00pm 36.7 39.6 22.4 43 9.9 N 11 20 6 11 1008.9 1007.4 0.0
23/01:30pm 36.7 38.8 22.4 43 9.9 NNE 15 24 8 13 1009.1 1007.6 0.0
23/01:00pm 36.0 37.8 21.8 43 9.8 NNE 15 26 8 14 1009.2 1007.7 0.0
23/12:30pm 34.8 37.2 21.5 46 9.1 NNE 11 19 6 10 1009.6 1008.1 0.0
23/12:00pm 35.4 36.5 22.0 45 9.2 NNE 19 28 10 15 1009.8 1008.3 0.0
23/11:30am 34.7 36.0 21.7 46 8.9 NNE 17 26 9 14 1010.1 1008.6 0.0
23/11:00am 33.9 34.9 21.7 49 8.4 N 19 32 10 17 1010.6 1009.1 0.0
23/10:30am 32.9 33.7 21.4 50 7.8 NNE 19 28 10 15 1010.7 1009.2 0.0
23/10:00am 32.1 32.9 21.3 53 7.3 NNE 19 28 10 15 1010.6 1009.1 0.0
23/09:30am 31.0 31.0 20.9 55 6.8 NNE 22 30 12 16 1010.9 1009.4 0.0
23/09:00am 30.3 29.3 20.5 55 6.5 NNE 26 35 14 19 1011.0 1009.5 0.0
23/08:30am 29.5 27.6 20.1 57 6.2 NNE 30 39 16 21 1010.8 1009.3 0.0
23/08:00am 28.7 26.9 19.6 58 6.0 NNE 28 39 15 21 1010.7 1009.2 0.0
23/07:30am 27.9 26.4 19.4 60 5.5 NE 26 32 14 17 1010.2 1008.8 0.0
23/07:00am 26.6 26.5 19.5 65 4.6 NE 19 26 10 14 1009.9 1008.4 0.0
23/06:30am 25.7 25.9 19.3 67 4.1 NE 17 20 9 11 1009.4 1007.9 0.0
23/06:00am 25.6 25.5 19.9 70 3.7 NE 20 24 11 13 1008.8 1007.3 0.0
23/05:30am 25.4 26.8 21.1 77 2.9 NE 15 19 8 10 1008.4 1006.9 0.0
23/05:00am 25.2 27.8 21.9 82 2.2 NE 11 17 6 9 1008.0 1006.5 0.0
23/04:30am 25.2 27.9 22.1 83 2.1 ENE 11 13 6 7 1007.6 1006.1 0.0
23/04:00am 25.1 28.8 22.6 86 1.7 ENE 7 9 4 5 1007.4 1005.9 0.0
23/03:30am 25.2 28.7 22.9 87 1.6 ENE 9 9 5 5 1007.4 1005.9 0.0
23/03:00am 25.4 29.2 22.7 85 1.8 E 7 9 4 5 1007.4 1005.9 0.0
23/02:30am 25.6 29.3 22.5 83 2.1 E 7 9 4 5 1007.4 1005.9 0.0
23/02:00am 26.2 29.4 22.3 79 2.6 ESE 9 11 5 6 1007.5 1006.0 0.0
23/01:30am 27.0 30.8 22.4 76 3.1 SE 6 7 3 4 1007.7 1006.2 0.0
23/01:00am 27.0 31.3 22.6 77 3.0 ESE 4 4 2 2 1007.9 1006.4 0.0
23/12:30am 27.6 32.0 22.1 72 3.7 SSE 2 2 1 1 1008.1 1006.6 0.0
23/12:00am 27.6 32.0 22.8 75 3.3 S 4 6 2 3 1008.3 1006.8 0.0
 
Date/Time
EST
Temp
°C
App
Temp
°C
Dew
Point
°C
Rel
Hum
%
Delta-T
°C
Wind Press
QNH
hPa
Press
MSL
hPa
Rain since
9am
mm
Dir  Spd
km/h
Gust
km/h
Spd
kts
Gust
kts
22/11:30pm 28.4 32.2 22.4 70 4.1 SSE 6 7 3 4 1008.4 1006.9 0.0
22/11:00pm 28.7 33.0 22.7 70 4.1 SSE 4 6 2 3 1008.8 1007.3 0.0
22/10:30pm 29.2 34.3 22.7 68 4.5 CALM 0 2 0 1 1009.2 1007.7 0.0
22/10:00pm 29.4 33.3 22.6 67 4.7 ESE 6 6 3 3 1009.3 1007.8 0.0
22/09:30pm 30.1 33.9 21.7 60 5.7 E 4 6 2 3 1008.8 1007.3 0.0
22/09:00pm 29.9 35.3 23.3 67 4.6 CALM 0 0 0 0 1008.9 1007.4 0.0
22/08:30pm 30.5 33.1 22.7 63 5.4 E 13 19 7 10 1008.4 1006.9 0.0
22/08:00pm 31.4 32.7 21.6 56 6.7 ENE 17 35 9 19 1008.0 1006.5 0.0
22/07:30pm 32.5 35.0 21.7 53 7.4 SE 11 13 6 7 1007.9 1006.4 0.0
22/07:00pm 33.4 35.0 22.2 52 7.7 ESE 17 22 9 12 1007.7 1006.2 0.0
22/06:30pm 34.2 37.5 23.2 52 7.7 SE 11 13 6 7 1007.1 1005.6 0.0
22/06:00pm 34.7 38.3 23.1 51 8.1 ESE 9 15 5 8 1006.7 1005.2 0.0
22/05:30pm 34.4 37.6 23.1 51 7.9 ESE 11 15 6 8 1006.3 1004.8 0.0
22/05:00pm 34.3 36.2 22.7 50 8.1 ESE 17 20 9 11 1006.2 1004.7 0.0
22/04:30pm 34.9 37.1 22.6 49 8.5 ESE 15 20 8 11 1006.0 1004.5 0.0
22/04:00pm 35.2 39.4 22.5 47 8.8 ESE 4 9 2 5 1006.2 1004.7 0.0
22/03:30pm 34.7 38.2 22.1 48 8.7 SE 7 19 4 10 1006.6 1005.1 0.0
22/03:00pm 33.9 37.9 22.7 52 7.8 S 6 9 3 5 1007.5 1006.0 0.0
22/02:30pm 33.3 37.1 22.4 52 7.5 SSE 6 11 3 6 1008.1 1006.6 0.0
22/02:00pm 32.6 36.2 22.4 55 7.0 ESE 7 13 4 7 1008.3 1006.8 0.0
22/01:30pm 33.2 35.7 21.7 51 7.9 ENE 11 17 6 9 1008.6 1007.1 0.0
22/01:00pm 32.8 36.7 22.9 56 6.9 E 7 11 4 6 1008.8 1007.3 0.0
22/12:30pm 32.8 35.8 22.0 53 7.4 ENE 9 15 5 8 1008.9 1007.4 0.0
22/12:00pm 32.7 36.5 22.8 56 6.9 E 7 13 4 7 1009.2 1007.7 0.0
22/11:30am 32.5 36.2 22.3 55 7.0 E 6 9 3 5 1009.8 1008.3 0.0
22/11:00am 32.6 36.8 22.4 55 7.0 S 4 7 2 4 1010.2 1008.8 0.0
22/10:30am 31.7 36.3 23.2 60 5.9 SSE 4 7 2 4 1010.9 1009.4 0.0
22/10:00am 30.5 35.0 22.9 64 5.2 S 4 7 2 4 1011.1 1009.6 0.0
22/09:30am 29.7 34.0 22.7 66 4.8 WSW 4 13 2 7 1011.3 1009.8 0.0
22/09:00am 29.4 33.8 23.8 72 3.9 SSW 7 11 4 6 1011.3 1009.8 0.0
22/08:30am 28.6 32.8 23.5 74 3.5 SW 7 13 4 7 1011.3 1009.8 0.0
22/08:00am 27.9 30.9 23.3 76 3.2 WSW 13 15 7 8 1011.3 1009.8 0.0
22/07:30am 27.2 32.1 24.3 84 2.0 SW 6 9 3 5 1011.3 1009.8 0.0
22/07:00am 26.9 31.4 24.0 84 2.0 SW 7 9 4 5 1010.8 1009.3 0.0
22/06:30am 26.5 30.9 23.8 85 1.9 WSW 7 9 4 5 1010.3 1008.9 0.0
22/06:00am 26.4 31.5 23.3 83 2.1 SSE 2 4 1 2 1009.8 1008.3 0.0
22/05:30am 26.3 31.0 23.4 84 2.0 SE 4 6 2 3 1009.3 1007.8 0.0
22/05:00am 26.4 31.6 23.5 84 2.0 SSW 2 7 1 4 1009.1 1007.6 0.0
22/04:30am 26.4 30.7 23.3 83 2.1 WNW 6 7 3 4 1008.9 1007.4 0.0
22/04:00am 26.7 29.9 23.0 80 2.5 WNW 11 15 6 8 1008.7 1007.2 0.0
22/03:30am 27.1 30.7 23.1 79 2.7 WSW 9 11 5 6 1008.6 1007.1 0.0
22/03:00am 26.9 31.0 22.9 79 2.7 W 6 9 3 5 1008.3 1006.8 0.0
22/02:30am 26.9 30.0 22.9 79 2.7 WNW 11 17 6 9 1008.3 1006.8 0.0
22/02:00am 27.3 31.5 23.1 78 2.9 W 6 9 3 5 1008.7 1007.2 0.0
22/01:30am 27.6 32.1 23.6 79 2.8 N 6 9 3 5 1008.9 1007.4 0.0
22/01:00am 28.2 30.0 23.3 75 3.4 N 19 26 10 14 1009.0 1007.5 0.0
22/12:30am 28.2 29.9 22.4 71 4.0 NNE 17 22 9 12 1008.8 1007.3 0.0
22/12:00am 28.1 31.1 22.6 72 3.8 NE 11 15 6 8 1009.0 1007.5 0.0
 
Date/Time
EST
Temp
°C
App
Temp
°C
Dew
Point
°C
Rel
Hum
%
Delta-T
°C
Wind Press
QNH
hPa
Press
MSL
hPa
Rain since
9am
mm
Dir  Spd
km/h
Gust
km/h
Spd
kts
Gust
kts
21/11:30pm 28.5 30.8 22.0 68 4.4 NE 13 19 7 10 1009.2 1007.7 0.0
21/11:00pm 28.8 32.4 22.3 68 4.4 NE 7 11 4 6 1009.5 1008.0 0.0
21/10:30pm 29.0 32.5 22.2 66 4.6 ENE 7 11 4 6 1009.5 1008.0 0.0
21/10:00pm 29.0 31.6 22.0 66 4.8 E 11 17 6 9 1009.5 1008.0 0.0
21/09:30pm 28.9 29.7 21.7 65 4.9 E 20 30 11 16 1009.0 1007.5 0.0
21/09:00pm 30.2 30.8 22.1 62 5.5 ESE 22 35 12 19 1008.5 1007.0 0.0
21/08:30pm 31.5 34.7 23.1 61 5.8 E 11 15 6 8 1008.3 1006.8 0.0
21/08:00pm 31.4 34.6 23.0 61 5.8 ENE 11 15 6 8 1007.7 1006.2 0.0
21/07:30pm 31.7 34.3 22.7 59 6.2 NE 13 19 7 10 1007.4 1005.9 0.0
21/07:00pm 32.5 34.2 21.7 53 7.4 ENE 15 26 8 14 1006.8 1005.3 0.0
21/06:30pm 32.7 33.7 22.2 54 7.2 ESE 20 26 11 14 1006.1 1004.6 0.0
21/06:00pm 37.1 39.3 19.5 35 11.8 S 7 22 4 12 1005.4 1003.8 0.0
21/05:30pm 37.8 41.2 20.1 35 12.0 SW 2 6 1 3 1004.9 1003.4 0.0
21/05:00pm 37.6 40.4 20.8 37 11.5 NNW 7 13 4 7 1004.9 1003.4 0.0
21/04:30pm 35.7 38.8 21.5 43 9.7 WSW 7 11 4 6 1005.2 1003.6 0.0
21/04:00pm 34.8 35.8 21.8 46 8.9 SW 19 26 10 14 1005.5 1003.9 0.0
21/03:30pm 36.2 38.2 20.8 40 10.5 SSW 11 30 6 16 1005.9 1004.4 0.0
21/03:00pm 37.5 40.0 19.9 35 11.9 WSW 6 17 3 9 1006.3 1004.8 0.0
21/02:30pm 37.6 39.6 20.0 36 11.9 WNW 9 17 5 9 1006.8 1005.3 0.0
21/02:00pm 37.5 38.8 19.4 34 12.2 W 11 20 6 11 1007.2 1005.7 0.0
21/01:30pm 37.0 39.6 21.2 40 10.8 SW 9 19 5 10 1007.5 1006.0 0.0
21/01:00pm 36.4 38.9 21.0 40 10.5 W 9 17 5 9 1007.9 1006.4 0.0
21/12:30pm 35.7 39.0 21.5 43 9.7 WSW 6 15 3 8 1008.2 1006.7 0.0
21/12:00pm 35.5 39.1 22.4 46 9.1 SW 7 17 4 9 1008.8 1007.3 0.0
21/11:30am 35.0 38.6 23.0 49 8.4 WSW 9 17 5 9 1009.4 1007.9 0.0
21/11:00am 33.9 37.3 22.7 52 7.8 SW 9 19 5 10 1009.8 1008.3 0.0
21/10:30am 33.5 37.7 23.5 55 7.0 SW 7 17 4 9 1010.2 1008.8 0.0
21/10:00am 32.4 36.2 23.4 59 6.3 WSW 9 15 5 8 1010.4 1009.0 0.0
21/09:30am 31.4 36.4 23.8 64 5.3 SW 4 7 2 4 1010.7 1009.2 0.0
21/09:00am 30.2 35.0 24.1 70 4.3 WNW 6 9 3 5 1010.7 1009.2 26.2
21/08:30am 29.7 34.4 24.3 73 3.8 WSW 7 9 4 5 1010.7 1009.2 26.2
21/08:00am 28.4 33.1 24.0 77 3.1 WNW 6 7 3 4 1010.2 1008.8 26.2
21/07:30am 28.2 32.5 24.2 79 2.8 NW 9 11 5 6 1009.8 1008.3 26.2
21/07:00am 27.9 32.8 24.3 81 2.5 NW 6 7 3 4 1009.4 1007.9 26.2
21/06:30am 27.1 33.4 24.7 87 1.7 CALM 0 0 0 0 1009.1 1007.6 26.2
21/06:00am 27.2 32.6 24.5 85 1.9 N 4 7 2 4 1008.4 1006.9 26.2
21/05:30am 27.1 32.4 24.4 85 1.9 SW 4 6 2 3 1007.9 1006.4 26.2
21/05:00am 27.2 32.1 24.3 84 2.0 WNW 6 7 3 4 1007.1 1005.6 26.2
21/04:30am 27.5 32.2 23.9 81 2.5 N 6 7 3 4 1006.8 1005.3 26.2
21/04:00am 27.3 32.1 24.2 83 2.2 NW 6 7 3 4 1006.7 1005.2 26.2
21/03:30am 27.3 31.9 24.2 83 2.2 NNW 7 9 4 5 1006.5 1005.0 26.2
21/03:00am 27.4 31.8 23.8 81 2.5 NW 7 9 4 5 1006.5 1005.0 26.2
21/02:30am 27.7 31.7 23.7 79 2.8 NNW 9 11 5 6 1006.5 1005.0 26.2
21/02:00am 28.1 32.2 23.9 78 2.9 NW 9 13 5 7 1006.6 1005.1 26.2
21/01:30am 28.3 32.1 24.1 78 2.9 NNW 11 15 6 8 1006.9 1005.4 26.2
21/01:00am 28.2 31.8 23.8 77 3.1 NNW 11 13 6 7 1006.9 1005.4 26.2
21/12:30am 28.4 31.5 23.5 75 3.4 NNW 13 15 7 8 1006.9 1005.4 26.2
21/12:00am 27.8 33.2 25.2 86 1.8 N 6 7 3 4 1007.3 1005.8 26.2
 
Date/Time
EST
Temp
°C
App
Temp
°C
Dew
Point
°C
Rel
Hum
%
Delta-T
°C
Wind Press
QNH
hPa
Press
MSL
hPa
Rain since
9am
mm
Dir  Spd
km/h
Gust
km/h
Spd
kts
Gust
kts
20/11:30pm 28.0 33.0 24.8 83 2.2 NE 7 9 4 5 1007.3 1005.8 26.2
20/11:00pm 28.2 33.3 24.6 81 2.5 NE 6 7 3 4 1007.6 1006.1 26.2
20/10:30pm 28.0 32.6 24.2 80 2.6 NE 7 9 4 5 1007.5 1006.0 26.2
20/10:00pm 29.8 33.5 23.3 68 4.5 NE 9 17 5 9 1007.3 1005.8 26.2
20/09:30pm 28.9 32.8 24.2 76 3.3 NW 11 11 6 6 1007.1 1005.6 26.2
20/09:00pm 28.9 34.0 24.9 79 2.8 NW 7 9 4 5 1006.8 1005.3 26.2
20/08:30pm 29.3 34.3 24.8 77 3.2 NW 7 9 4 5 1006.2 1004.7 26.2

Other Formats:

Comma delimited format used in spreadsheet applications
http://www.bom.gov.au/fwo/IDQ60801/IDQ60801.94342.axf

JavaScript Object Notation format (JSON) in row-major order
http://www.bom.gov.au/fwo/IDQ60801/IDQ60801.94342.json